Lower Post, Canada
Current Conditions -  °F | °C
As of 1:00 AM on Wednesday 22 Oct 2014 (Local Time) from CYQH Reporting Station
Moderate Fog Moderate Fog  
Wind Chill: 25°   Ceiling: 200
Heat Index: 30°   Visibility: 0.5mi
Dew Point: 30°   Wind: 5mph
Humidity: 100%   Direction: 280°W
Pressure: 29.37"   Gusts: NA
Location:  59.92°N, 128.5°W
Report Text: CYQH 220800Z 28004KT 1/2SM FZFG VV002 M01/M01 A2937 RMK FG8 RVRRWY 09 1800FT SLP979
Loading
Personal Weather Stations






























Interactive Weather Map
Tropical Storm Tracking
New forecast layout! Learn more

10-Day Weather Forecast

Advertisements
Track Severe Weather on mobile